sensor_id;sensor_type;location;lat;lon;timestamp;P1;durP1;ratioP1;P2;durP2;ratioP2
50219;SDS011;36110;51.536;7.562;2023-07-08T00:02:08;1.98;;;1.48;;
50219;SDS011;36110;51.536;7.562;2023-07-08T00:04:35;3.28;;;1.83;;
50219;SDS011;36110;51.536;7.562;2023-07-08T00:07:00;1.00;;;0.90;;
50219;SDS011;36110;51.536;7.562;2023-07-08T00:09:26;4.15;;;1.58;;
50219;SDS011;36110;51.536;7.562;2023-07-08T00:11:51;0.95;;;0.95;;
50219;SDS011;36110;51.536;7.562;2023-07-08T00:14:17;1.02;;;1.02;;
50219;SDS011;36110;51.536;7.562;2023-07-08T00:16:42;1.23;;;1.20;;
50219;SDS011;36110;51.536;7.562;2023-07-08T00:19:08;2.88;;;1.70;;
50219;SDS011;36110;51.536;7.562;2023-07-08T00:21:35;5.38;;;2.80;;
50219;SDS011;36110;51.536;7.562;2023-07-08T00:24:00;2.03;;;1.80;;
50219;SDS011;36110;51.536;7.562;2023-07-08T00:26:28;0.85;;;0.85;;
50219;SDS011;36110;51.536;7.562;2023-07-08T00:28:54;5.97;;;2.78;;
50219;SDS011;36110;51.536;7.562;2023-07-08T00:31:21;3.53;;;1.67;;
50219;SDS011;36110;51.536;7.562;2023-07-08T00:33:50;3.85;;;1.90;;
50219;SDS011;36110;51.536;7.562;2023-07-08T00:36:16;6.35;;;3.13;;
50219;SDS011;36110;51.536;7.562;2023-07-08T00:38:42;6.28;;;3.33;;
50219;SDS011;36110;51.536;7.562;2023-07-08T00:41:16;5.50;;;3.33;;
50219;SDS011;36110;51.536;7.562;2023-07-08T00:43:48;5.20;;;2.70;;
50219;SDS011;36110;51.536;7.562;2023-07-08T00:48:53;8.88;;;3.40;;
50219;SDS011;36110;51.536;7.562;2023-07-08T00:51:39;1.17;;;1.10;;
50219;SDS011;36110;51.536;7.562;2023-07-08T00:54:05;4.80;;;2.65;;
50219;SDS011;36110;51.536;7.562;2023-07-08T00:56:38;1.48;;;1.17;;
50219;SDS011;36110;51.536;7.562;2023-07-08T00:59:39;2.75;;;1.75;;
50219;SDS011;36110;51.536;7.562;2023-07-08T01:01:59;1.35;;;1.20;;
50219;SDS011;36110;51.536;7.562;2023-07-08T01:04:32;2.22;;;1.98;;
50219;SDS011;36110;51.536;7.562;2023-07-08T01:07:00;2.35;;;1.98;;
50219;SDS011;36110;51.536;7.562;2023-07-08T01:09:32;5.68;;;3.63;;
50219;SDS011;36110;51.536;7.562;2023-07-08T01:12:01;1.48;;;1.20;;
50219;SDS011;36110;51.536;7.562;2023-07-08T01:14:29;6.57;;;2.78;;
50219;SDS011;36110;51.536;7.562;2023-07-08T01:16:56;6.18;;;3.15;;
50219;SDS011;36110;51.536;7.562;2023-07-08T01:19:22;5.13;;;2.97;;
50219;SDS011;36110;51.536;7.562;2023-07-08T01:24:23;1.20;;;1.10;;
50219;SDS011;36110;51.536;7.562;2023-07-08T01:26:49;5.05;;;1.92;;
50219;SDS011;36110;51.536;7.562;2023-07-08T01:29:14;5.82;;;2.28;;
50219;SDS011;36110;51.536;7.562;2023-07-08T01:31:39;3.53;;;1.85;;
50219;SDS011;36110;51.536;7.562;2023-07-08T01:34:05;1.35;;;1.25;;
50219;SDS011;36110;51.536;7.562;2023-07-08T01:36:31;3.55;;;2.45;;
50219;SDS011;36110;51.536;7.562;2023-07-08T01:39:02;1.00;;;1.00;;
50219;SDS011;36110;51.536;7.562;2023-07-08T01:41:27;3.75;;;1.95;;
50219;SDS011;36110;51.536;7.562;2023-07-08T01:43:53;1.50;;;1.40;;
50219;SDS011;36110;51.536;7.562;2023-07-08T01:46:20;2.88;;;1.45;;
50219;SDS011;36110;51.536;7.562;2023-07-08T01:48:59;6.07;;;3.03;;
50219;SDS011;36110;51.536;7.562;2023-07-08T01:51:25;4.30;;;2.28;;
50219;SDS011;36110;51.536;7.562;2023-07-08T01:53:51;1.25;;;1.15;;
50219;SDS011;36110;51.536;7.562;2023-07-08T01:56:16;0.90;;;0.90;;
50219;SDS011;36110;51.536;7.562;2023-07-08T01:58:42;1.50;;;1.25;;
50219;SDS011;36110;51.536;7.562;2023-07-08T02:01:07;1.08;;;1.08;;
50219;SDS011;36110;51.536;7.562;2023-07-08T02:03:33;0.98;;;0.98;;
50219;SDS011;36110;51.536;7.562;2023-07-08T02:05:59;1.10;;;1.08;;
50219;SDS011;36110;51.536;7.562;2023-07-08T02:08:24;1.40;;;1.10;;
50219;SDS011;36110;51.536;7.562;2023-07-08T02:10:51;5.88;;;2.92;;
50219;SDS011;36110;51.536;7.562;2023-07-08T02:13:18;1.13;;;1.10;;
50219;SDS011;36110;51.536;7.562;2023-07-08T02:15:44;3.17;;;1.63;;
50219;SDS011;36110;51.536;7.562;2023-07-08T02:18:09;1.33;;;1.13;;
50219;SDS011;36110;51.536;7.562;2023-07-08T02:20:34;1.20;;;1.10;;
50219;SDS011;36110;51.536;7.562;2023-07-08T02:23:00;5.93;;;3.05;;
50219;SDS011;36110;51.536;7.562;2023-07-08T02:25:25;5.90;;;2.72;;
50219;SDS011;36110;51.536;7.562;2023-07-08T02:27:51;1.63;;;1.50;;
50219;SDS011;36110;51.536;7.562;2023-07-08T02:30:17;3.10;;;2.53;;
50219;SDS011;36110;51.536;7.562;2023-07-08T02:32:42;7.93;;;3.33;;
50219;SDS011;36110;51.536;7.562;2023-07-08T02:35:21;1.33;;;1.23;;
50219;SDS011;36110;51.536;7.562;2023-07-08T02:37:51;9.35;;;3.38;;
50219;SDS011;36110;51.536;7.562;2023-07-08T02:40:17;6.53;;;3.05;;
50219;SDS011;36110;51.536;7.562;2023-07-08T02:42:42;1.15;;;1.15;;
50219;SDS011;36110;51.536;7.562;2023-07-08T02:45:08;2.75;;;2.30;;
50219;SDS011;36110;51.536;7.562;2023-07-08T02:47:33;4.68;;;3.28;;
50219;SDS011;36110;51.536;7.562;2023-07-08T02:49:58;0.80;;;0.80;;
50219;SDS011;36110;51.536;7.562;2023-07-08T02:52:24;1.65;;;1.55;;
50219;SDS011;36110;51.536;7.562;2023-07-08T02:54:49;1.55;;;1.10;;
50219;SDS011;36110;51.536;7.562;2023-07-08T02:57:14;3.42;;;2.00;;
50219;SDS011;36110;51.536;7.562;2023-07-08T02:59:40;2.03;;;1.73;;
50219;SDS011;36110;51.536;7.562;2023-07-08T03:02:05;1.58;;;1.20;;
50219;SDS011;36110;51.536;7.562;2023-07-08T03:04:30;2.60;;;1.55;;
50219;SDS011;36110;51.536;7.562;2023-07-08T03:06:56;1.45;;;1.35;;
50219;SDS011;36110;51.536;7.562;2023-07-08T03:09:21;1.00;;;1.00;;
50219;SDS011;36110;51.536;7.562;2023-07-08T03:11:46;1.13;;;1.08;;
50219;SDS011;36110;51.536;7.562;2023-07-08T03:14:12;1.02;;;1.02;;
50219;SDS011;36110;51.536;7.562;2023-07-08T03:16:37;1.80;;;1.50;;
50219;SDS011;36110;51.536;7.562;2023-07-08T03:19:02;1.00;;;1.00;;
50219;SDS011;36110;51.536;7.562;2023-07-08T03:21:29;1.45;;;1.35;;
50219;SDS011;36110;51.536;7.562;2023-07-08T03:23:55;1.85;;;1.67;;
50219;SDS011;36110;51.536;7.562;2023-07-08T03:26:21;0.85;;;0.85;;
50219;SDS011;36110;51.536;7.562;2023-07-08T03:28:47;3.63;;;1.50;;
50219;SDS011;36110;51.536;7.562;2023-07-08T03:31:13;1.23;;;1.20;;
50219;SDS011;36110;51.536;7.562;2023-07-08T03:33:38;1.33;;;1.23;;
50219;SDS011;36110;51.536;7.562;2023-07-08T03:36:07;3.95;;;2.47;;
50219;SDS011;36110;51.536;7.562;2023-07-08T03:38:36;1.83;;;1.70;;
50219;SDS011;36110;51.536;7.562;2023-07-08T03:41:01;1.15;;;1.08;;
50219;SDS011;36110;51.536;7.562;2023-07-08T03:43:26;1.52;;;1.42;;
50219;SDS011;36110;51.536;7.562;2023-07-08T03:45:52;2.50;;;2.30;;
50219;SDS011;36110;51.536;7.562;2023-07-08T03:48:17;2.50;;;1.67;;
50219;SDS011;36110;51.536;7.562;2023-07-08T03:50:42;1.00;;;1.00;;
50219;SDS011;36110;51.536;7.562;2023-07-08T03:53:08;0.85;;;0.85;;
50219;SDS011;36110;51.536;7.562;2023-07-08T03:55:33;0.70;;;0.70;;
50219;SDS011;36110;51.536;7.562;2023-07-08T03:57:59;1.33;;;1.10;;
50219;SDS011;36110;51.536;7.562;2023-07-08T04:00:24;1.00;;;1.00;;
50219;SDS011;36110;51.536;7.562;2023-07-08T04:02:49;3.00;;;2.15;;
50219;SDS011;36110;51.536;7.562;2023-07-08T04:05:15;1.55;;;1.20;;
50219;SDS011;36110;51.536;7.562;2023-07-08T04:07:42;1.13;;;1.13;;
50219;SDS011;36110;51.536;7.562;2023-07-08T04:10:08;3.53;;;2.45;;
50219;SDS011;36110;51.536;7.562;2023-07-08T04:12:34;6.05;;;1.98;;
50219;SDS011;36110;51.536;7.562;2023-07-08T04:14:59;7.45;;;2.47;;
50219;SDS011;36110;51.536;7.562;2023-07-08T04:17:25;4.25;;;3.15;;
50219;SDS011;36110;51.536;7.562;2023-07-08T04:19:50;3.42;;;1.60;;
50219;SDS011;36110;51.536;7.562;2023-07-08T04:22:16;1.45;;;1.35;;
50219;SDS011;36110;51.536;7.562;2023-07-08T04:24:42;1.13;;;1.02;;
50219;SDS011;36110;51.536;7.562;2023-07-08T04:27:10;1.95;;;1.60;;
50219;SDS011;36110;51.536;7.562;2023-07-08T04:29:38;1.30;;;1.20;;
50219;SDS011;36110;51.536;7.562;2023-07-08T04:32:04;1.85;;;1.65;;
50219;SDS011;36110;51.536;7.562;2023-07-08T04:34:29;9.57;;;3.08;;
50219;SDS011;36110;51.536;7.562;2023-07-08T04:36:54;2.50;;;1.88;;
50219;SDS011;36110;51.536;7.562;2023-07-08T04:39:20;1.33;;;1.23;;
50219;SDS011;36110;51.536;7.562;2023-07-08T04:41:45;5.30;;;1.58;;
50219;SDS011;36110;51.536;7.562;2023-07-08T04:44:11;2.92;;;2.20;;
50219;SDS011;36110;51.536;7.562;2023-07-08T04:46:45;1.52;;;1.42;;
50219;SDS011;36110;51.536;7.562;2023-07-08T04:49:12;7.63;;;2.65;;
50219;SDS011;36110;51.536;7.562;2023-07-08T04:51:38;4.38;;;2.42;;
50219;SDS011;36110;51.536;7.562;2023-07-08T04:54:04;1.13;;;1.05;;
50219;SDS011;36110;51.536;7.562;2023-07-08T04:56:34;3.60;;;2.13;;
50219;SDS011;36110;51.536;7.562;2023-07-08T04:59:11;1.73;;;1.40;;
50219;SDS011;36110;51.536;7.562;2023-07-08T05:01:38;4.45;;;3.25;;
50219;SDS011;36110;51.536;7.562;2023-07-08T05:04:04;1.30;;;1.20;;
50219;SDS011;36110;51.536;7.562;2023-07-08T05:06:32;5.30;;;2.53;;
50219;SDS011;36110;51.536;7.562;2023-07-08T05:08:58;1.20;;;1.10;;
50219;SDS011;36110;51.536;7.562;2023-07-08T05:11:24;1.00;;;0.90;;
50219;SDS011;36110;51.536;7.562;2023-07-08T05:13:49;5.65;;;2.85;;
50219;SDS011;36110;51.536;7.562;2023-07-08T05:16:15;5.50;;;2.92;;
50219;SDS011;36110;51.536;7.562;2023-07-08T05:18:40;3.03;;;2.08;;
50219;SDS011;36110;51.536;7.562;2023-07-08T05:21:05;6.57;;;3.38;;
50219;SDS011;36110;51.536;7.562;2023-07-08T05:23:31;2.33;;;1.67;;
50219;SDS011;36110;51.536;7.562;2023-07-08T05:25:58;2.88;;;2.15;;
50219;SDS011;36110;51.536;7.562;2023-07-08T05:28:25;6.75;;;3.50;;
50219;SDS011;36110;51.536;7.562;2023-07-08T05:30:53;7.38;;;2.92;;
50219;SDS011;36110;51.536;7.562;2023-07-08T05:33:20;7.05;;;3.10;;
50219;SDS011;36110;51.536;7.562;2023-07-08T05:35:46;3.05;;;1.63;;
50219;SDS011;36110;51.536;7.562;2023-07-08T05:38:11;6.03;;;2.85;;
50219;SDS011;36110;51.536;7.562;2023-07-08T05:40:36;4.43;;;2.60;;
50219;SDS011;36110;51.536;7.562;2023-07-08T05:43:02;5.38;;;2.50;;
50219;SDS011;36110;51.536;7.562;2023-07-08T05:45:27;3.40;;;2.72;;
50219;SDS011;36110;51.536;7.562;2023-07-08T05:47:52;4.78;;;3.10;;
50219;SDS011;36110;51.536;7.562;2023-07-08T05:50:17;10.25;;;2.60;;
50219;SDS011;36110;51.536;7.562;2023-07-08T05:52:43;7.35;;;3.55;;
50219;SDS011;36110;51.536;7.562;2023-07-08T05:55:08;6.70;;;3.17;;
50219;SDS011;36110;51.536;7.562;2023-07-08T05:57:33;7.63;;;3.00;;
50219;SDS011;36110;51.536;7.562;2023-07-08T05:59:59;3.25;;;2.88;;
50219;SDS011;36110;51.536;7.562;2023-07-08T06:02:24;2.25;;;2.05;;
50219;SDS011;36110;51.536;7.562;2023-07-08T06:04:51;10.48;;;2.88;;
50219;SDS011;36110;51.536;7.562;2023-07-08T06:07:16;4.80;;;3.22;;
50219;SDS011;36110;51.536;7.562;2023-07-08T06:09:42;1.38;;;1.13;;
50219;SDS011;36110;51.536;7.562;2023-07-08T06:12:08;5.00;;;2.50;;
50219;SDS011;36110;51.536;7.562;2023-07-08T06:14:33;5.07;;;2.15;;
50219;SDS011;36110;51.536;7.562;2023-07-08T06:16:58;4.68;;;3.05;;
50219;SDS011;36110;51.536;7.562;2023-07-08T06:19:24;1.00;;;1.00;;
50219;SDS011;36110;51.536;7.562;2023-07-08T06:21:49;5.70;;;2.65;;
50219;SDS011;36110;51.536;7.562;2023-07-08T06:24:15;5.85;;;2.92;;
50219;SDS011;36110;51.536;7.562;2023-07-08T06:26:40;3.17;;;2.40;;
50219;SDS011;36110;51.536;7.562;2023-07-08T06:29:05;6.85;;;2.65;;
50219;SDS011;36110;51.536;7.562;2023-07-08T06:31:31;2.08;;;1.75;;
50219;SDS011;36110;51.536;7.562;2023-07-08T06:33:56;4.93;;;2.55;;
50219;SDS011;36110;51.536;7.562;2023-07-08T06:36:22;2.47;;;1.90;;
50219;SDS011;36110;51.536;7.562;2023-07-08T06:38:48;7.57;;;3.05;;
50219;SDS011;36110;51.536;7.562;2023-07-08T06:41:13;2.97;;;2.67;;
50219;SDS011;36110;51.536;7.562;2023-07-08T06:43:38;6.25;;;2.92;;
50219;SDS011;36110;51.536;7.562;2023-07-08T06:46:04;3.75;;;3.05;;
50219;SDS011;36110;51.536;7.562;2023-07-08T06:48:31;4.28;;;2.45;;
50219;SDS011;36110;51.536;7.562;2023-07-08T06:50:56;1.85;;;1.27;;
50219;SDS011;36110;51.536;7.562;2023-07-08T06:53:22;1.92;;;1.83;;
50219;SDS011;36110;51.536;7.562;2023-07-08T06:55:48;3.42;;;2.53;;
50219;SDS011;36110;51.536;7.562;2023-07-08T06:58:14;2.33;;;2.13;;
50219;SDS011;36110;51.536;7.562;2023-07-08T07:00:43;4.95;;;2.97;;
50219;SDS011;36110;51.536;7.562;2023-07-08T07:03:09;4.60;;;2.20;;
50219;SDS011;36110;51.536;7.562;2023-07-08T07:05:34;1.02;;;1.02;;
50219;SDS011;36110;51.536;7.562;2023-07-08T07:08:00;4.75;;;2.83;;
50219;SDS011;36110;51.536;7.562;2023-07-08T07:10:25;3.72;;;2.92;;
50219;SDS011;36110;51.536;7.562;2023-07-08T07:12:50;1.67;;;1.58;;
50219;SDS011;36110;51.536;7.562;2023-07-08T07:15:16;5.22;;;2.95;;
50219;SDS011;36110;51.536;7.562;2023-07-08T07:17:41;3.97;;;2.67;;
50219;SDS011;36110;51.536;7.562;2023-07-08T07:20:07;7.45;;;2.85;;
50219;SDS011;36110;51.536;7.562;2023-07-08T07:22:33;2.47;;;2.28;;
50219;SDS011;36110;51.536;7.562;2023-07-08T07:24:59;4.40;;;2.20;;
50219;SDS011;36110;51.536;7.562;2023-07-08T07:27:24;3.13;;;2.40;;
50219;SDS011;36110;51.536;7.562;2023-07-08T07:29:50;5.32;;;3.13;;
50219;SDS011;36110;51.536;7.562;2023-07-08T07:32:17;4.45;;;2.58;;
50219;SDS011;36110;51.536;7.562;2023-07-08T07:34:46;2.45;;;2.25;;
50219;SDS011;36110;51.536;7.562;2023-07-08T07:37:12;1.92;;;1.65;;
50219;SDS011;36110;51.536;7.562;2023-07-08T07:39:38;1.63;;;1.52;;
50219;SDS011;36110;51.536;7.562;2023-07-08T07:42:04;3.92;;;2.53;;
50219;SDS011;36110;51.536;7.562;2023-07-08T07:44:29;5.97;;;3.15;;
50219;SDS011;36110;51.536;7.562;2023-07-08T07:46:54;4.13;;;3.00;;
50219;SDS011;36110;51.536;7.562;2023-07-08T07:49:20;5.95;;;3.33;;
50219;SDS011;36110;51.536;7.562;2023-07-08T07:51:46;2.10;;;1.83;;
50219;SDS011;36110;51.536;7.562;2023-07-08T07:54:11;4.07;;;3.33;;
50219;SDS011;36110;51.536;7.562;2023-07-08T07:56:37;7.00;;;3.20;;
50219;SDS011;36110;51.536;7.562;2023-07-08T07:59:02;4.55;;;2.92;;
50219;SDS011;36110;51.536;7.562;2023-07-08T08:01:28;2.45;;;1.85;;
50219;SDS011;36110;51.536;7.562;2023-07-08T08:03:53;3.70;;;2.70;;
50219;SDS011;36110;51.536;7.562;2023-07-08T08:06:19;6.55;;;3.30;;
50219;SDS011;36110;51.536;7.562;2023-07-08T08:08:44;4.97;;;3.08;;
50219;SDS011;36110;51.536;7.562;2023-07-08T08:11:10;1.40;;;1.30;;
50219;SDS011;36110;51.536;7.562;2023-07-08T08:13:35;3.85;;;2.50;;
50219;SDS011;36110;51.536;7.562;2023-07-08T08:16:01;6.50;;;3.42;;
50219;SDS011;36110;51.536;7.562;2023-07-08T08:18:27;4.03;;;3.25;;
50219;SDS011;36110;51.536;7.562;2023-07-08T08:20:52;4.80;;;3.33;;
50219;SDS011;36110;51.536;7.562;2023-07-08T08:23:17;5.50;;;3.47;;
50219;SDS011;36110;51.536;7.562;2023-07-08T08:25:43;6.70;;;3.03;;
50219;SDS011;36110;51.536;7.562;2023-07-08T08:28:08;1.88;;;1.65;;
50219;SDS011;36110;51.536;7.562;2023-07-08T08:30:34;3.38;;;1.88;;
50219;SDS011;36110;51.536;7.562;2023-07-08T08:33:02;10.63;;;3.20;;
50219;SDS011;36110;51.536;7.562;2023-07-08T08:35:28;6.03;;;2.75;;
50219;SDS011;36110;51.536;7.562;2023-07-08T08:37:53;1.20;;;1.20;;
50219;SDS011;36110;51.536;7.562;2023-07-08T08:40:19;2.85;;;2.15;;
50219;SDS011;36110;51.536;7.562;2023-07-08T08:42:46;1.27;;;1.17;;
50219;SDS011;36110;51.536;7.562;2023-07-08T08:45:18;9.25;;;3.28;;
50219;SDS011;36110;51.536;7.562;2023-07-08T08:47:46;3.95;;;2.72;;
50219;SDS011;36110;51.536;7.562;2023-07-08T08:53:13;6.13;;;3.45;;
50219;SDS011;36110;51.536;7.562;2023-07-08T08:55:50;6.10;;;3.65;;
50219;SDS011;36110;51.536;7.562;2023-07-08T09:01:14;4.85;;;2.83;;
50219;SDS011;36110;51.536;7.562;2023-07-08T09:06:36;6.07;;;3.83;;
50219;SDS011;36110;51.536;7.562;2023-07-08T09:26:05;4.75;;;3.25;;
50219;SDS011;36110;51.536;7.562;2023-07-08T09:28:41;6.45;;;4.47;;
50219;SDS011;36110;51.536;7.562;2023-07-08T09:31:09;2.95;;;2.38;;
50219;SDS011;36110;51.536;7.562;2023-07-08T09:34:15;5.53;;;4.32;;
50219;SDS011;36110;51.536;7.562;2023-07-08T09:36:42;7.47;;;4.30;;
50219;SDS011;36110;51.536;7.562;2023-07-08T09:39:09;9.88;;;4.13;;
50219;SDS011;36110;51.536;7.562;2023-07-08T09:41:36;10.57;;;4.43;;
50219;SDS011;36110;51.536;7.562;2023-07-08T09:44:06;5.78;;;4.85;;
50219;SDS011;36110;51.536;7.562;2023-07-08T09:46:38;7.10;;;4.60;;
50219;SDS011;36110;51.536;7.562;2023-07-08T09:49:17;8.32;;;4.90;;
50219;SDS011;36110;51.536;7.562;2023-07-08T09:51:43;9.77;;;5.18;;
50219;SDS011;36110;51.536;7.562;2023-07-08T09:54:09;6.93;;;4.00;;
50219;SDS011;36110;51.536;7.562;2023-07-08T09:56:34;2.28;;;2.05;;
50219;SDS011;36110;51.536;7.562;2023-07-08T09:59:00;6.63;;;5.07;;
50219;SDS011;36110;51.536;7.562;2023-07-08T10:01:26;10.63;;;5.40;;
50219;SDS011;36110;51.536;7.562;2023-07-08T10:03:57;6.88;;;5.40;;
50219;SDS011;36110;51.536;7.562;2023-07-08T10:06:27;4.72;;;3.90;;
50219;SDS011;36110;51.536;7.562;2023-07-08T10:08:54;7.10;;;4.82;;
50219;SDS011;36110;51.536;7.562;2023-07-08T10:11:30;5.93;;;4.93;;
50219;SDS011;36110;51.536;7.562;2023-07-08T10:13:59;8.25;;;4.97;;
50219;SDS011;36110;51.536;7.562;2023-07-08T10:16:29;7.10;;;5.18;;
50219;SDS011;36110;51.536;7.562;2023-07-08T10:18:56;7.00;;;5.32;;
50219;SDS011;36110;51.536;7.562;2023-07-08T10:27:08;5.65;;;4.30;;
50219;SDS011;36110;51.536;7.562;2023-07-08T10:29:59;4.38;;;3.97;;
50219;SDS011;36110;51.536;7.562;2023-07-08T10:41:18;5.63;;;3.50;;
50219;SDS011;36110;51.536;7.562;2023-07-08T10:43:58;4.82;;;4.30;;
50219;SDS011;36110;51.536;7.562;2023-07-08T10:52:22;9.05;;;4.72;;
50219;SDS011;36110;51.536;7.562;2023-07-08T10:55:25;5.13;;;4.05;;
50219;SDS011;36110;51.536;7.562;2023-07-08T11:00:26;3.70;;;3.40;;
50219;SDS011;36110;51.536;7.562;2023-07-08T11:03:14;4.22;;;3.55;;
50219;SDS011;36110;51.536;7.562;2023-07-08T11:06:05;6.57;;;4.18;;
50219;SDS011;36110;51.536;7.562;2023-07-08T11:08:40;5.50;;;4.10;;
50219;SDS011;36110;51.536;7.562;2023-07-08T11:11:13;5.45;;;4.30;;
50219;SDS011;36110;51.536;7.562;2023-07-08T11:13:49;6.70;;;3.90;;
50219;SDS011;36110;51.536;7.562;2023-07-08T11:16:30;5.75;;;4.40;;
50219;SDS011;36110;51.536;7.562;2023-07-08T11:19:00;5.90;;;4.10;;
50219;SDS011;36110;51.536;7.562;2023-07-08T11:21:30;4.35;;;3.78;;
50219;SDS011;36110;51.536;7.562;2023-07-08T11:24:02;4.07;;;3.67;;
50219;SDS011;36110;51.536;7.562;2023-07-08T11:32:02;3.80;;;3.40;;
50219;SDS011;36110;51.536;7.562;2023-07-08T11:34:29;4.45;;;3.80;;
50219;SDS011;36110;51.536;7.562;2023-07-08T11:36:54;4.85;;;3.63;;
50219;SDS011;36110;51.536;7.562;2023-07-08T11:42:11;3.63;;;3.30;;
50219;SDS011;36110;51.536;7.562;2023-07-08T11:44:42;3.30;;;3.00;;
50219;SDS011;36110;51.536;7.562;2023-07-08T11:47:15;7.75;;;4.18;;
50219;SDS011;36110;51.536;7.562;2023-07-08T11:49:44;6.32;;;3.78;;
50219;SDS011;36110;51.536;7.562;2023-07-08T11:52:13;5.57;;;3.55;;
50219;SDS011;36110;51.536;7.562;2023-07-08T11:54:44;5.45;;;4.03;;
50219;SDS011;36110;51.536;7.562;2023-07-08T11:57:18;5.03;;;3.90;;
50219;SDS011;36110;51.536;7.562;2023-07-08T11:59:52;4.20;;;3.40;;
50219;SDS011;36110;51.536;7.562;2023-07-08T12:02:47;5.55;;;3.92;;
50219;SDS011;36110;51.536;7.562;2023-07-08T12:05:19;9.15;;;4.00;;
50219;SDS011;36110;51.536;7.562;2023-07-08T12:07:55;4.88;;;3.90;;
50219;SDS011;36110;51.536;7.562;2023-07-08T12:13:03;4.15;;;3.33;;
50219;SDS011;36110;51.536;7.562;2023-07-08T12:15:34;3.20;;;2.90;;
50219;SDS011;36110;51.536;7.562;2023-07-08T12:18:16;5.57;;;3.60;;
50219;SDS011;36110;51.536;7.562;2023-07-08T12:20:47;8.13;;;4.15;;
50219;SDS011;36110;51.536;7.562;2023-07-08T12:23:17;4.40;;;4.00;;
50219;SDS011;36110;51.536;7.562;2023-07-08T12:25:44;4.22;;;3.83;;
50219;SDS011;36110;51.536;7.562;2023-07-08T12:28:10;5.40;;;4.25;;
50219;SDS011;36110;51.536;7.562;2023-07-08T12:30:37;5.50;;;3.80;;
50219;SDS011;36110;51.536;7.562;2023-07-08T12:33:03;3.53;;;3.22;;
50219;SDS011;36110;51.536;7.562;2023-07-08T12:35:33;8.52;;;3.55;;
50219;SDS011;36110;51.536;7.562;2023-07-08T12:38:00;4.85;;;3.15;;
50219;SDS011;36110;51.536;7.562;2023-07-08T12:40:28;3.17;;;2.88;;
50219;SDS011;36110;51.536;7.562;2023-07-08T12:42:54;3.22;;;2.88;;
50219;SDS011;36110;51.536;7.562;2023-07-08T12:45:22;5.25;;;3.55;;
50219;SDS011;36110;51.536;7.562;2023-07-08T12:47:48;5.45;;;3.70;;
50219;SDS011;36110;51.536;7.562;2023-07-08T12:50:14;4.30;;;3.35;;
50219;SDS011;36110;51.536;7.562;2023-07-08T12:52:40;4.85;;;3.80;;
50219;SDS011;36110;51.536;7.562;2023-07-08T12:55:08;6.43;;;3.40;;
50219;SDS011;36110;51.536;7.562;2023-07-08T12:57:35;5.80;;;3.25;;
50219;SDS011;36110;51.536;7.562;2023-07-08T13:00:01;2.97;;;2.72;;
50219;SDS011;36110;51.536;7.562;2023-07-08T13:02:29;4.38;;;3.72;;
50219;SDS011;36110;51.536;7.562;2023-07-08T13:04:57;3.20;;;2.90;;
50219;SDS011;36110;51.536;7.562;2023-07-08T13:07:35;5.88;;;3.20;;
50219;SDS011;36110;51.536;7.562;2023-07-08T13:10:02;3.17;;;2.70;;
50219;SDS011;36110;51.536;7.562;2023-07-08T13:12:30;5.15;;;3.90;;
50219;SDS011;36110;51.536;7.562;2023-07-08T13:14:56;7.45;;;3.50;;
50219;SDS011;36110;51.536;7.562;2023-07-08T13:17:23;4.25;;;3.13;;
50219;SDS011;36110;51.536;7.562;2023-07-08T13:19:48;5.18;;;3.50;;
50219;SDS011;36110;51.536;7.562;2023-07-08T13:22:15;3.97;;;3.25;;
50219;SDS011;36110;51.536;7.562;2023-07-08T13:24:42;6.13;;;3.70;;
50219;SDS011;36110;51.536;7.562;2023-07-08T13:27:08;3.03;;;2.83;;
50219;SDS011;36110;51.536;7.562;2023-07-08T13:29:38;6.82;;;3.70;;
50219;SDS011;36110;51.536;7.562;2023-07-08T13:32:08;5.55;;;3.78;;
50219;SDS011;36110;51.536;7.562;2023-07-08T13:34:35;5.18;;;3.35;;
50219;SDS011;36110;51.536;7.562;2023-07-08T13:37:00;4.40;;;3.53;;
50219;SDS011;36110;51.536;7.562;2023-07-08T13:39:31;6.15;;;3.35;;
50219;SDS011;36110;51.536;7.562;2023-07-08T13:41:58;4.72;;;3.55;;
50219;SDS011;36110;51.536;7.562;2023-07-08T13:44:24;8.18;;;3.65;;
50219;SDS011;36110;51.536;7.562;2023-07-08T13:46:54;9.82;;;3.80;;
50219;SDS011;36110;51.536;7.562;2023-07-08T13:49:28;7.18;;;4.18;;
50219;SDS011;36110;51.536;7.562;2023-07-08T13:52:06;5.47;;;3.58;;
50219;SDS011;36110;51.536;7.562;2023-07-08T13:54:40;8.82;;;3.75;;
50219;SDS011;36110;51.536;7.562;2023-07-08T13:57:13;6.82;;;3.85;;
50219;SDS011;36110;51.536;7.562;2023-07-08T13:59:41;6.80;;;3.70;;
50219;SDS011;36110;51.536;7.562;2023-07-08T14:02:18;7.38;;;3.85;;
50219;SDS011;36110;51.536;7.562;2023-07-08T14:04:45;8.18;;;4.03;;
50219;SDS011;36110;51.536;7.562;2023-07-08T14:07:18;5.78;;;4.00;;
50219;SDS011;36110;51.536;7.562;2023-07-08T14:09:44;6.72;;;3.78;;
50219;SDS011;36110;51.536;7.562;2023-07-08T14:12:10;6.03;;;4.10;;
50219;SDS011;36110;51.536;7.562;2023-07-08T14:14:35;5.13;;;3.80;;
50219;SDS011;36110;51.536;7.562;2023-07-08T14:17:00;4.80;;;3.33;;
50219;SDS011;36110;51.536;7.562;2023-07-08T14:19:27;5.93;;;4.00;;
50219;SDS011;36110;51.536;7.562;2023-07-08T14:21:57;5.22;;;3.30;;
50219;SDS011;36110;51.536;7.562;2023-07-08T14:24:24;4.85;;;3.58;;
50219;SDS011;36110;51.536;7.562;2023-07-08T14:26:49;6.38;;;3.78;;
50219;SDS011;36110;51.536;7.562;2023-07-08T14:29:15;6.47;;;3.80;;
50219;SDS011;36110;51.536;7.562;2023-07-08T14:31:40;5.53;;;3.70;;
50219;SDS011;36110;51.536;7.562;2023-07-08T14:34:16;7.60;;;3.80;;
50219;SDS011;36110;51.536;7.562;2023-07-08T14:36:46;4.22;;;3.70;;
50219;SDS011;36110;51.536;7.562;2023-07-08T14:39:12;6.35;;;3.92;;
50219;SDS011;36110;51.536;7.562;2023-07-08T14:41:39;8.52;;;3.80;;
50219;SDS011;36110;51.536;7.562;2023-07-08T14:44:39;5.32;;;3.72;;
50219;SDS011;36110;51.536;7.562;2023-07-08T14:46:58;5.03;;;3.50;;
50219;SDS011;36110;51.536;7.562;2023-07-08T14:49:23;5.45;;;3.78;;
50219;SDS011;36110;51.536;7.562;2023-07-08T14:51:49;4.72;;;3.53;;
50219;SDS011;36110;51.536;7.562;2023-07-08T14:54:16;4.25;;;3.63;;
50219;SDS011;36110;51.536;7.562;2023-07-08T14:56:42;6.40;;;3.72;;
50219;SDS011;36110;51.536;7.562;2023-07-08T14:59:12;7.38;;;3.90;;
50219;SDS011;36110;51.536;7.562;2023-07-08T15:01:41;9.82;;;4.30;;
50219;SDS011;36110;51.536;7.562;2023-07-08T15:04:14;5.25;;;3.67;;
50219;SDS011;36110;51.536;7.562;2023-07-08T15:06:41;5.18;;;3.67;;
50219;SDS011;36110;51.536;7.562;2023-07-08T15:09:06;5.22;;;3.42;;
50219;SDS011;36110;51.536;7.562;2023-07-08T15:11:32;8.05;;;4.22;;
50219;SDS011;36110;51.536;7.562;2023-07-08T15:13:59;4.88;;;3.70;;
50219;SDS011;36110;51.536;7.562;2023-07-08T15:16:25;6.40;;;4.28;;
50219;SDS011;36110;51.536;7.562;2023-07-08T15:18:51;4.32;;;3.70;;
50219;SDS011;36110;51.536;7.562;2023-07-08T15:21:16;5.20;;;4.20;;
50219;SDS011;36110;51.536;7.562;2023-07-08T15:23:42;5.60;;;4.10;;
50219;SDS011;36110;51.536;7.562;2023-07-08T15:26:11;6.88;;;4.70;;
50219;SDS011;36110;51.536;7.562;2023-07-08T15:28:47;9.50;;;4.45;;
50219;SDS011;36110;51.536;7.562;2023-07-08T15:31:14;7.93;;;4.47;;
50219;SDS011;36110;51.536;7.562;2023-07-08T15:33:45;8.13;;;5.15;;
50219;SDS011;36110;51.536;7.562;2023-07-08T15:36:13;6.75;;;4.72;;
50219;SDS011;36110;51.536;7.562;2023-07-08T15:38:39;6.70;;;5.28;;
50219;SDS011;36110;51.536;7.562;2023-07-08T15:41:05;6.35;;;5.15;;
50219;SDS011;36110;51.536;7.562;2023-07-08T15:43:30;7.15;;;5.25;;
50219;SDS011;36110;51.536;7.562;2023-07-08T15:45:56;11.15;;;5.60;;
50219;SDS011;36110;51.536;7.562;2023-07-08T15:48:21;10.80;;;5.72;;
50219;SDS011;36110;51.536;7.562;2023-07-08T15:50:46;7.82;;;5.13;;
50219;SDS011;36110;51.536;7.562;2023-07-08T15:53:15;9.68;;;5.60;;
50219;SDS011;36110;51.536;7.562;2023-07-08T15:55:42;6.80;;;5.43;;
50219;SDS011;36110;51.536;7.562;2023-07-08T15:58:19;7.80;;;5.68;;